createdAt,value
2022-10-28T00:00:31.010Z,13.33
2022-10-28T00:03:00.897Z,13.33
2022-10-28T00:05:29.288Z,13.34
2022-10-28T00:07:56.129Z,13.31
2022-10-28T00:10:22.676Z,13.28
2022-10-28T00:12:49.238Z,13.14
2022-10-28T00:15:15.900Z,13.24
2022-10-28T00:17:42.452Z,13.22
2022-10-28T00:20:09.489Z,13.23
2022-10-28T00:22:35.991Z,13.20
2022-10-28T00:25:02.620Z,13.15
2022-10-28T00:27:29.862Z,13.03
2022-10-28T00:29:56.954Z,13.09
2022-10-28T00:32:23.474Z,13.09
2022-10-28T00:34:50.183Z,13.07
2022-10-28T00:37:16.716Z,12.96
2022-10-28T00:39:43.220Z,13.03
2022-10-28T00:42:11.055Z,13.01
2022-10-28T00:44:59.362Z,12.90
2022-10-28T00:47:28.961Z,12.91
2022-10-28T00:50:05.118Z,13.00
2022-10-28T00:52:32.555Z,12.95
2022-10-28T00:55:01.607Z,12.95
2022-10-28T00:57:31.920Z,12.95
2022-10-28T01:00:01.239Z,12.83
2022-10-28T01:02:28.579Z,12.92
2022-10-28T01:04:55.397Z,12.84
2022-10-28T01:07:23.910Z,12.97
2022-10-28T01:09:50.409Z,13.07
2022-10-28T01:12:22.925Z,12.97
2022-10-28T01:15:29.208Z,13.12
2022-10-28T01:18:01.438Z,13.12
2022-10-28T01:20:55.231Z,13.16
2022-10-28T01:23:40.614Z,13.19
2022-10-28T01:26:37.556Z,13.23
2022-10-28T01:29:10.014Z,13.20
2022-10-28T01:31:44.600Z,13.39
2022-10-28T01:34:35.886Z,13.40
2022-10-28T01:37:19.739Z,13.37
2022-10-28T01:40:19.645Z,13.44
2022-10-28T01:43:05.022Z,13.29
2022-10-28T01:45:40.494Z,13.45
2022-10-28T01:48:22.933Z,13.50
2022-10-28T01:51:02.316Z,13.39
2022-10-28T01:53:34.608Z,13.48
2022-10-28T01:56:05.519Z,13.45
2022-10-28T01:58:33.498Z,13.42
2022-10-28T02:01:04.827Z,13.33
2022-10-28T02:03:32.248Z,13.49
2022-10-28T02:06:03.058Z,13.47
2022-10-28T02:09:00.471Z,13.45
2022-10-28T02:11:59.326Z,13.45
2022-10-28T02:14:44.981Z,13.48
2022-10-28T02:17:23.404Z,13.51
2022-10-28T02:19:56.017Z,13.58
2022-10-28T02:22:53.972Z,13.66
2022-10-28T02:25:25.919Z,13.73
2022-10-28T02:28:02.495Z,13.79
2022-10-28T02:30:47.209Z,13.63
2022-10-28T02:33:19.584Z,13.90
2022-10-28T02:35:57.837Z,13.85
2022-10-28T02:38:41.930Z,13.85
2022-10-28T02:41:19.088Z,13.87
2022-10-28T02:43:47.980Z,13.86
2022-10-28T02:46:16.769Z,13.86
2022-10-28T02:48:54.466Z,13.91
2022-10-28T02:51:29.599Z,13.93
2022-10-28T02:54:15.311Z,13.92
2022-10-28T02:57:01.042Z,13.94
2022-10-28T02:59:29.232Z,13.96
2022-10-28T03:01:56.157Z,14.00
2022-10-28T03:04:22.903Z,13.94
2022-10-28T03:06:49.550Z,14.03
2022-10-28T03:09:16.054Z,14.01
2022-10-28T03:11:42.648Z,13.88
2022-10-28T03:14:11.884Z,13.96
2022-10-28T03:16:41.222Z,13.90
2022-10-28T03:21:39.206Z,13.94
2022-10-28T03:24:06.065Z,13.92
2022-10-28T03:26:32.657Z,13.69
2022-10-28T03:28:59.180Z,13.82
2022-10-28T03:31:25.718Z,13.75
2022-10-28T03:33:52.293Z,13.78
2022-10-28T03:36:18.784Z,13.73
2022-10-28T03:38:45.338Z,13.50
2022-10-28T03:41:11.833Z,13.55
2022-10-28T03:43:38.418Z,13.42
2022-10-28T03:46:05.051Z,13.47
2022-10-28T03:48:31.612Z,13.49
2022-10-28T03:50:58.164Z,13.44
2022-10-28T03:53:27.596Z,13.51
2022-10-28T03:55:57.542Z,13.44
2022-10-28T03:58:25.136Z,13.63
2022-10-28T04:00:52.668Z,13.65
2022-10-28T04:03:21.230Z,13.67
2022-10-28T04:05:50.821Z,13.70
2022-10-28T04:08:18.538Z,13.79
2022-10-28T04:10:47.445Z,13.88
2022-10-28T04:13:15.443Z,13.95
2022-10-28T04:15:42.161Z,13.98
2022-10-28T04:18:09.395Z,14.01
2022-10-28T04:20:36.735Z,14.03
2022-10-28T04:23:03.838Z,14.00
2022-10-28T04:25:30.882Z,13.97
2022-10-28T04:27:57.464Z,13.96
2022-10-28T04:30:24.600Z,14.00
2022-10-28T04:32:51.260Z,14.04
2022-10-28T04:35:17.860Z,13.97
2022-10-28T04:37:44.442Z,14.03
2022-10-28T04:40:11.291Z,13.98
2022-10-28T04:42:37.889Z,13.85
2022-10-28T04:45:04.865Z,14.00
2022-10-28T04:47:31.482Z,14.00
2022-10-28T04:49:58.279Z,13.91
2022-10-28T04:52:25.065Z,14.00
2022-10-28T04:54:51.663Z,14.04
2022-10-28T04:57:18.219Z,13.98
2022-10-28T04:59:45.888Z,14.05
2022-10-28T05:02:12.673Z,14.05
2022-10-28T05:04:39.398Z,13.95
2022-10-28T05:07:06.024Z,14.00
2022-10-28T05:09:32.646Z,13.96
2022-10-28T05:11:59.182Z,13.91
2022-10-28T05:14:26.232Z,13.93
2022-10-28T05:16:52.728Z,13.91
2022-10-28T05:19:19.368Z,13.92
2022-10-28T05:21:45.928Z,13.88
2022-10-28T05:24:12.532Z,13.89
2022-10-28T05:26:39.121Z,13.84
2022-10-28T05:29:05.750Z,13.84
2022-10-28T05:31:32.227Z,13.79
2022-10-28T05:33:58.933Z,13.79
2022-10-28T05:36:26.732Z,13.77
2022-10-28T05:38:53.365Z,13.73
2022-10-28T05:41:20.737Z,13.67
2022-10-28T05:43:48.645Z,13.63
2022-10-28T05:46:15.238Z,13.58
2022-10-28T05:48:41.738Z,13.47
2022-10-28T05:51:08.363Z,13.46
2022-10-28T05:53:35.183Z,13.36
2022-10-28T05:56:01.755Z,13.46
2022-10-28T05:58:28.305Z,13.43
2022-10-28T06:00:54.866Z,13.44
2022-10-28T06:03:21.510Z,13.31
2022-10-28T06:05:48.079Z,13.40
2022-10-28T06:08:14.824Z,13.41
2022-10-28T06:10:42.422Z,13.26
2022-10-28T06:13:08.654Z,13.40
2022-10-28T06:15:35.179Z,13.39
2022-10-28T06:18:01.908Z,13.36
2022-10-28T06:20:28.481Z,13.39
2022-10-28T06:22:56.137Z,13.35
2022-10-28T06:25:24.635Z,13.41
2022-10-28T06:27:53.362Z,13.33
2022-10-28T06:30:20.869Z,13.47
2022-10-28T06:32:47.434Z,13.58
2022-10-28T06:35:14.423Z,13.47
2022-10-28T06:37:41.071Z,13.67
2022-10-28T06:40:09.184Z,13.76
2022-10-28T06:42:35.780Z,13.81
2022-10-28T06:45:02.981Z,13.87
2022-10-28T06:47:32.838Z,13.90
2022-10-28T06:49:59.599Z,14.00
2022-10-28T06:52:26.322Z,14.05
2022-10-28T06:54:52.885Z,14.17
2022-10-28T06:57:19.518Z,14.26
2022-10-28T06:59:46.073Z,14.28
2022-10-28T07:02:12.974Z,14.27
2022-10-28T07:04:39.933Z,14.44
2022-10-28T07:07:06.655Z,14.48
2022-10-28T07:09:33.854Z,14.54
2022-10-28T07:12:04.889Z,14.53
2022-10-28T07:14:34.799Z,14.55
2022-10-28T07:17:01.745Z,14.56
2022-10-28T07:19:28.364Z,14.56
2022-10-28T07:21:55.126Z,14.53
2022-10-28T07:24:21.745Z,14.54
2022-10-28T07:26:53.107Z,14.59
2022-10-28T07:29:22.131Z,14.63
2022-10-28T07:31:48.770Z,14.65
2022-10-28T07:34:15.425Z,14.58
2022-10-28T07:36:42.066Z,14.84
2022-10-28T07:39:09.986Z,14.94
2022-10-28T07:41:37.508Z,15.00
2022-10-28T07:44:04.201Z,15.06
2022-10-28T07:46:31.057Z,15.16
2022-10-28T07:48:57.866Z,15.23
2022-10-28T07:51:24.351Z,15.23
2022-10-28T07:53:50.998Z,15.33
2022-10-28T07:56:18.835Z,15.46
2022-10-28T07:58:45.442Z,15.51
2022-10-28T08:01:14.526Z,15.67
2022-10-28T08:03:41.626Z,15.65
2022-10-28T08:06:19.179Z,15.84
2022-10-28T08:08:47.996Z,15.84
2022-10-28T08:11:27.819Z,15.84
2022-10-28T08:13:55.995Z,15.86
2022-10-28T08:16:22.873Z,15.91
2022-10-28T08:18:49.468Z,15.91
2022-10-28T08:21:16.709Z,15.97
2022-10-28T08:23:48.808Z,15.93
2022-10-28T08:26:16.316Z,15.97
2022-10-28T08:28:43.470Z,16.05
2022-10-28T08:31:12.322Z,16.11
2022-10-28T08:33:42.385Z,16.16
2022-10-28T08:36:12.067Z,16.32
2022-10-28T08:38:44.957Z,16.39
2022-10-28T08:41:37.078Z,16.49
2022-10-28T08:44:34.386Z,16.44
2022-10-28T08:47:00.899Z,16.51
2022-10-28T08:49:30.392Z,16.55
2022-10-28T08:52:03.754Z,16.51
2022-10-28T08:54:50.534Z,16.51
2022-10-28T08:57:23.972Z,16.48
2022-10-28T08:59:54.089Z,16.54
2022-10-28T09:02:26.107Z,16.53
2022-10-28T09:05:05.943Z,16.57
2022-10-28T09:07:36.379Z,16.61
2022-10-28T09:10:04.796Z,16.71
2022-10-28T09:13:19.706Z,16.78
2022-10-28T09:16:15.188Z,16.84
2022-10-28T09:18:52.772Z,16.94
2022-10-28T09:21:36.845Z,17.06
2022-10-28T09:24:18.886Z,17.05
2022-10-28T09:26:49.656Z,17.12
2022-10-28T09:29:51.129Z,17.40
2022-10-28T09:32:48.034Z,17.66
2022-10-28T09:35:17.991Z,17.84
2022-10-28T09:37:51.100Z,17.74
2022-10-28T09:40:25.677Z,17.80
2022-10-28T09:43:09.878Z,18.15
2022-10-28T09:45:40.303Z,18.23
2022-10-28T09:48:14.912Z,18.48
2022-10-28T09:50:41.588Z,18.56
2022-10-28T09:53:20.070Z,18.74
2022-10-28T09:55:46.657Z,18.96
2022-10-28T09:58:13.966Z,19.15
2022-10-28T10:00:41.125Z,19.22
2022-10-28T10:03:07.697Z,18.73
2022-10-28T10:05:40.928Z,18.41
2022-10-28T10:08:10.935Z,18.47
2022-10-28T10:10:52.169Z,18.63
2022-10-28T10:13:24.173Z,18.81
2022-10-28T10:16:11.350Z,18.97
2022-10-28T10:18:42.202Z,19.20
2022-10-28T10:21:08.737Z,19.38
2022-10-28T10:23:37.621Z,19.58
2022-10-28T10:26:12.002Z,19.54
2022-10-28T10:28:45.652Z,19.78
2022-10-28T10:31:21.012Z,19.86
2022-10-28T10:33:53.544Z,19.96
2022-10-28T10:36:23.764Z,20.06
2022-10-28T10:38:55.892Z,20.22
2022-10-28T10:41:35.109Z,20.39
2022-10-28T10:44:01.847Z,20.48
2022-10-28T10:46:28.497Z,20.70
2022-10-28T10:49:14.287Z,20.59
2022-10-28T10:51:53.933Z,20.66
2022-10-28T10:54:20.902Z,20.65
2022-10-28T10:56:47.615Z,20.55
2022-10-28T10:59:29.054Z,20.48
2022-10-28T11:01:58.184Z,20.45
2022-10-28T11:04:27.850Z,20.47
2022-10-28T11:06:56.722Z,20.70
2022-10-28T11:09:31.653Z,20.66
2022-10-28T11:11:58.414Z,20.54
2022-10-28T11:14:30.395Z,20.39
2022-10-28T11:17:02.553Z,20.39
2022-10-28T11:19:33.333Z,20.40
2022-10-28T11:22:24.606Z,20.73
2022-10-28T11:25:28.290Z,20.83
2022-10-28T11:28:00.034Z,21.22
2022-10-28T11:30:55.710Z,21.40
2022-10-28T11:33:42.775Z,21.48
2022-10-28T11:36:28.898Z,21.42
2022-10-28T11:39:41.794Z,21.55
2022-10-28T11:42:31.795Z,21.46
2022-10-28T11:45:09.244Z,21.26
2022-10-28T11:48:04.951Z,21.43
2022-10-28T11:50:37.397Z,21.54
2022-10-28T11:53:10.025Z,21.62
2022-10-28T11:55:46.361Z,21.75
2022-10-28T11:58:26.299Z,21.76
2022-10-28T12:01:04.535Z,21.92
2022-10-28T12:03:42.632Z,21.88
2022-10-28T12:06:38.407Z,21.96
2022-10-28T12:09:20.822Z,21.77
2022-10-28T12:12:03.333Z,21.70
2022-10-28T12:14:46.965Z,21.49
2022-10-28T12:17:28.027Z,21.45
2022-10-28T12:20:01.552Z,21.59
2022-10-28T12:22:45.414Z,21.65
2022-10-28T12:25:23.475Z,21.68
2022-10-28T12:27:54.270Z,21.66
2022-10-28T12:30:27.373Z,21.74
2022-10-28T12:32:59.216Z,21.76
2022-10-28T12:35:31.242Z,21.62
2022-10-28T12:38:03.668Z,21.66
2022-10-28T12:40:39.117Z,21.71
2022-10-28T12:43:17.494Z,21.86
2022-10-28T12:45:48.482Z,21.93
2022-10-28T12:48:15.050Z,22.03
2022-10-28T12:50:56.593Z,22.02
2022-10-28T12:53:42.484Z,22.04
2022-10-28T12:56:15.821Z,21.94
2022-10-28T12:58:53.795Z,22.14
2022-10-28T13:01:24.414Z,22.08
2022-10-28T13:03:51.122Z,21.94
2022-10-28T13:06:24.933Z,22.04
2022-10-28T13:09:10.264Z,22.07
2022-10-28T13:12:07.736Z,22.19
2022-10-28T13:15:05.058Z,22.18
2022-10-28T13:17:57.946Z,22.01
2022-10-28T13:21:01.867Z,21.93
2022-10-28T13:23:42.529Z,21.77
2022-10-28T13:26:34.207Z,21.82
2022-10-28T13:29:16.255Z,21.75
2022-10-28T13:31:45.971Z,21.72
2022-10-28T13:34:14.965Z,21.64
2022-10-28T13:36:44.029Z,21.79
2022-10-28T13:39:43.843Z,21.86
2022-10-28T13:42:13.429Z,21.93
2022-10-28T13:44:58.733Z,21.99
2022-10-28T13:47:27.955Z,22.02
2022-10-28T13:50:06.956Z,21.95
2022-10-28T13:52:38.545Z,21.89
2022-10-28T13:55:13.957Z,21.78
2022-10-28T13:57:44.764Z,21.61
2022-10-28T14:00:17.054Z,21.65
2022-10-28T14:02:55.620Z,21.57
2022-10-28T14:05:25.437Z,21.56
2022-10-28T14:07:58.176Z,21.54
2022-10-28T14:10:34.021Z,21.49
2022-10-28T14:15:51.752Z,21.47
2022-10-28T14:21:11.483Z,21.52
2022-10-28T14:23:44.144Z,21.56
2022-10-28T14:26:10.810Z,21.55
2022-10-28T14:28:37.261Z,21.59
2022-10-28T14:31:11.349Z,21.62
2022-10-28T14:33:46.915Z,21.67
2022-10-28T14:36:19.445Z,21.69
2022-10-28T14:39:21.339Z,21.74
2022-10-28T14:42:10.323Z,21.73
2022-10-28T14:44:47.617Z,21.75
2022-10-28T14:47:45.583Z,21.70
2022-10-28T14:50:21.253Z,21.66
2022-10-28T14:52:50.364Z,21.58
2022-10-28T14:55:25.971Z,21.38
2022-10-28T14:57:52.929Z,21.35
2022-10-28T15:00:22.137Z,21.32
2022-10-28T15:02:48.785Z,21.28
2022-10-28T15:05:20.335Z,21.26
2022-10-28T15:07:48.359Z,21.26
2022-10-28T15:10:16.194Z,21.26
2022-10-28T15:12:45.609Z,21.09
2022-10-28T15:15:20.908Z,21.23
2022-10-28T15:17:47.585Z,21.13
2022-10-28T15:20:32.190Z,21.08
2022-10-28T15:23:16.194Z,21.09
2022-10-28T15:25:42.871Z,21.06
2022-10-28T15:28:13.575Z,20.90
2022-10-28T15:30:46.062Z,20.93
2022-10-28T15:33:31.723Z,20.86
2022-10-28T15:36:21.238Z,20.80
2022-10-28T15:38:52.868Z,20.75
2022-10-28T15:41:22.331Z,20.68
2022-10-28T15:44:00.339Z,20.57
2022-10-28T15:46:28.232Z,20.48
2022-10-28T15:48:59.111Z,20.52
2022-10-28T15:51:26.157Z,20.45
2022-10-28T15:54:10.739Z,20.43
2022-10-28T15:56:57.906Z,20.41
2022-10-28T15:59:25.531Z,20.34
2022-10-28T16:01:56.069Z,20.25
2022-10-28T16:04:22.884Z,20.18
2022-10-28T16:06:55.826Z,19.96
2022-10-28T16:09:32.126Z,19.84
2022-10-28T16:12:02.485Z,19.94
2022-10-28T16:14:38.360Z,19.88
2022-10-28T16:17:10.950Z,19.80
2022-10-28T16:19:45.147Z,19.73
2022-10-28T16:22:14.072Z,19.66
2022-10-28T16:24:41.475Z,19.56
2022-10-28T16:27:22.854Z,19.50
2022-10-28T16:29:50.056Z,19.38
2022-10-28T16:32:18.630Z,19.41
2022-10-28T16:34:45.435Z,19.34
2022-10-28T16:37:21.981Z,19.25
2022-10-28T16:39:48.543Z,19.18
2022-10-28T16:42:15.651Z,19.13
2022-10-28T16:44:42.294Z,18.94
2022-10-28T16:47:17.894Z,19.00
2022-10-28T16:49:45.326Z,18.80
2022-10-28T16:52:30.652Z,18.85
2022-10-28T16:54:58.221Z,18.86
2022-10-28T16:57:25.811Z,18.78
2022-10-28T16:59:52.941Z,18.76
2022-10-28T17:02:32.224Z,18.76
2022-10-28T17:04:59.585Z,18.76
2022-10-28T17:07:27.605Z,18.78
2022-10-28T17:09:54.198Z,18.71
2022-10-28T17:12:23.178Z,18.72
2022-10-28T17:14:50.044Z,18.69
2022-10-28T17:17:17.313Z,18.61
2022-10-28T17:19:45.594Z,18.61
2022-10-28T17:22:12.792Z,18.52
2022-10-28T17:24:39.687Z,18.49
2022-10-28T17:27:06.698Z,18.52
2022-10-28T17:29:33.496Z,18.52
2022-10-28T17:32:00.110Z,18.47
2022-10-28T17:34:26.641Z,18.44
2022-10-28T17:36:53.344Z,18.30
2022-10-28T17:39:25.648Z,18.39
2022-10-28T17:41:52.610Z,18.31
2022-10-28T17:44:19.139Z,18.30
2022-10-28T17:46:47.739Z,18.30
2022-10-28T17:49:15.498Z,18.30
2022-10-28T17:51:42.556Z,18.28
2022-10-28T17:54:09.546Z,18.21
2022-10-28T17:56:36.557Z,18.20
2022-10-28T17:59:04.400Z,18.16
2022-10-28T18:01:33.654Z,18.00
2022-10-28T18:04:00.480Z,18.07
2022-10-28T18:06:29.551Z,17.92
2022-10-28T18:08:56.093Z,17.94
2022-10-28T18:11:22.699Z,17.90
2022-10-28T18:13:51.417Z,17.83
2022-10-28T18:16:20.573Z,17.83
2022-10-28T18:18:47.632Z,17.76
2022-10-28T18:21:14.703Z,17.72
2022-10-28T18:23:41.405Z,17.67
2022-10-28T18:26:13.764Z,17.72
2022-10-28T18:28:41.485Z,17.71
2022-10-28T18:31:12.447Z,17.66
2022-10-28T18:33:39.370Z,17.64
2022-10-28T18:36:09.974Z,17.58
2022-10-28T18:38:36.694Z,17.36
2022-10-28T18:41:03.499Z,17.58
2022-10-28T18:43:30.106Z,17.53
2022-10-28T18:46:01.511Z,17.57
2022-10-28T18:48:28.470Z,17.56
2022-10-28T18:50:59.511Z,17.44
2022-10-28T18:53:26.562Z,17.51
2022-10-28T18:55:53.409Z,17.42
2022-10-28T18:58:19.919Z,17.45
2022-10-28T19:00:46.563Z,17.51
2022-10-28T19:03:21.341Z,17.55
2022-10-28T19:05:48.207Z,17.55
2022-10-28T19:08:15.472Z,17.56
2022-10-28T19:10:42.181Z,17.61
2022-10-28T19:13:08.675Z,17.55
2022-10-28T19:15:40.134Z,17.67
2022-10-28T19:18:06.722Z,17.68
2022-10-28T19:20:33.291Z,17.69
2022-10-28T19:23:01.071Z,17.69
2022-10-28T19:25:27.825Z,17.63
2022-10-28T19:27:54.285Z,17.75
2022-10-28T19:30:20.905Z,17.77
2022-10-28T19:32:47.406Z,17.78
2022-10-28T19:35:13.963Z,17.71
2022-10-28T19:37:40.500Z,17.85
2022-10-28T19:40:07.728Z,17.74
2022-10-28T19:42:34.328Z,17.85
2022-10-28T19:45:01.354Z,17.87
2022-10-28T19:47:27.942Z,17.87
2022-10-28T19:49:54.449Z,17.84
2022-10-28T19:52:21.013Z,17.88
2022-10-28T19:54:47.544Z,17.85
2022-10-28T19:59:45.466Z,17.80
2022-10-28T20:02:12.078Z,17.79
2022-10-28T20:04:39.346Z,17.90
2022-10-28T20:07:05.858Z,17.87
2022-10-28T20:09:32.391Z,17.84
2022-10-28T20:11:58.929Z,17.79
2022-10-28T20:14:25.592Z,17.82
2022-10-28T20:16:52.168Z,17.78
2022-10-28T20:19:18.761Z,17.79
2022-10-28T20:21:45.465Z,17.81
2022-10-28T20:24:12.053Z,17.74
2022-10-28T20:26:39.563Z,17.77
2022-10-28T20:29:09.994Z,17.75
2022-10-28T20:31:38.929Z,17.71
2022-10-28T20:34:06.045Z,17.66
2022-10-28T20:36:40.540Z,17.64
2022-10-28T20:39:14.383Z,17.59
2022-10-28T20:41:42.294Z,17.61
2022-10-28T20:44:09.262Z,17.58
2022-10-28T20:46:36.121Z,17.55
2022-10-28T20:49:03.884Z,17.52
2022-10-28T20:51:31.898Z,17.46
2022-10-28T20:53:58.688Z,17.31
2022-10-28T20:56:28.092Z,17.35
2022-10-28T20:58:55.847Z,17.29
2022-10-28T21:01:28.503Z,17.26
2022-10-28T21:04:00.750Z,17.23
2022-10-28T21:06:27.943Z,17.04
2022-10-28T21:08:54.913Z,17.08
2022-10-28T21:11:23.476Z,16.86
2022-10-28T21:13:53.535Z,16.98
2022-10-28T21:16:21.700Z,16.92
2022-10-28T21:18:53.555Z,16.86
2022-10-28T21:21:21.530Z,16.68
2022-10-28T21:23:48.581Z,16.76
2022-10-28T21:26:15.531Z,16.65
2022-10-28T21:28:43.325Z,16.69
2022-10-28T21:31:15.102Z,16.61
2022-10-28T21:33:42.896Z,16.62
2022-10-28T21:36:11.983Z,16.57
2022-10-28T21:38:38.634Z,16.57
2022-10-28T21:41:18.502Z,16.44
2022-10-28T21:43:47.805Z,16.51
2022-10-28T21:46:15.334Z,16.46
2022-10-28T21:48:42.445Z,16.41
2022-10-28T21:51:13.499Z,16.29
2022-10-28T21:53:41.645Z,16.28
2022-10-28T21:56:16.272Z,16.34
2022-10-28T21:58:44.120Z,16.26
2022-10-28T22:01:13.824Z,16.22
2022-10-28T22:03:40.653Z,16.10
2022-10-28T22:06:07.615Z,16.10
2022-10-28T22:08:34.428Z,16.11
2022-10-28T22:11:15.769Z,16.06
2022-10-28T22:13:42.678Z,15.94
2022-10-28T22:16:17.130Z,16.09
2022-10-28T22:18:44.393Z,16.08
2022-10-28T22:21:14.711Z,16.10
2022-10-28T22:23:41.779Z,15.98
2022-10-28T22:26:10.847Z,16.15
2022-10-28T22:28:37.793Z,16.16
2022-10-28T22:31:06.565Z,16.13
2022-10-28T22:33:33.649Z,16.13
2022-10-28T22:36:02.794Z,16.17
2022-10-28T22:38:29.637Z,16.18
2022-10-28T22:41:12.977Z,16.08
2022-10-28T22:43:40.767Z,16.24
2022-10-28T22:46:07.873Z,16.25
2022-10-28T22:48:34.361Z,16.23
2022-10-28T22:51:01.243Z,16.18
2022-10-28T22:53:28.174Z,16.12
2022-10-28T22:55:55.643Z,16.13
2022-10-28T22:58:24.330Z,16.04
2022-10-28T23:00:51.092Z,16.04
2022-10-28T23:03:17.898Z,15.97
2022-10-28T23:05:44.539Z,15.90
2022-10-28T23:08:17.090Z,15.81
2022-10-28T23:10:43.591Z,15.77
2022-10-28T23:13:12.811Z,15.90
2022-10-28T23:15:39.386Z,15.84
2022-10-28T23:18:05.993Z,15.68
2022-10-28T23:20:32.495Z,15.82
2022-10-28T23:22:59.058Z,15.78
2022-10-28T23:25:25.567Z,15.76
2022-10-28T23:27:52.370Z,15.60
2022-10-28T23:30:19.215Z,15.59
2022-10-28T23:32:45.770Z,15.62
2022-10-28T23:35:12.287Z,15.59
2022-10-28T23:37:38.774Z,15.62
2022-10-28T23:40:06.044Z,15.61
2022-10-28T23:42:32.584Z,15.60
2022-10-28T23:44:59.107Z,15.59
2022-10-28T23:47:25.742Z,15.57
2022-10-28T23:49:53.017Z,15.53
2022-10-28T23:52:19.632Z,15.46
2022-10-28T23:54:46.155Z,15.54
2022-10-28T23:57:12.970Z,15.56
2022-10-28T23:59:39.444Z,15.60
